sensor_id;sensor_type;location;lat;lon;timestamp;P1;durP1;ratioP1;P2;durP2;ratioP2
12972;SDS011;6551;51.056;9.466;2023-02-18T00:01:29;7.70;;;6.90;;
12972;SDS011;6551;51.056;9.466;2023-02-18T00:03:55;9.67;;;7.87;;
12972;SDS011;6551;51.056;9.466;2023-02-18T00:06:25;9.30;;;7.30;;
12972;SDS011;6551;51.056;9.466;2023-02-18T00:08:56;10.90;;;7.37;;
12972;SDS011;6551;51.056;9.466;2023-02-18T00:11:29;11.33;;;8.73;;
12972;SDS011;6551;51.056;9.466;2023-02-18T00:14:00;10.93;;;7.70;;
12972;SDS011;6551;51.056;9.466;2023-02-18T00:16:28;10.63;;;7.63;;
12972;SDS011;6551;51.056;9.466;2023-02-18T00:18:58;10.90;;;7.13;;
12972;SDS011;6551;51.056;9.466;2023-02-18T00:21:28;8.13;;;6.60;;
12972;SDS011;6551;51.056;9.466;2023-02-18T00:23:55;9.30;;;7.87;;
12972;SDS011;6551;51.056;9.466;2023-02-18T00:26:21;9.67;;;6.73;;
12972;SDS011;6551;51.056;9.466;2023-02-18T00:28:48;8.87;;;7.57;;
12972;SDS011;6551;51.056;9.466;2023-02-18T00:31:18;10.73;;;7.83;;
12972;SDS011;6551;51.056;9.466;2023-02-18T00:33:49;9.13;;;7.43;;
12972;SDS011;6551;51.056;9.466;2023-02-18T00:36:17;9.53;;;7.23;;
12972;SDS011;6551;51.056;9.466;2023-02-18T00:38:45;10.10;;;6.67;;
12972;SDS011;6551;51.056;9.466;2023-02-18T00:41:18;8.27;;;6.57;;
12972;SDS011;6551;51.056;9.466;2023-02-18T00:43:47;9.50;;;6.43;;
12972;SDS011;6551;51.056;9.466;2023-02-18T00:46:12;8.40;;;6.13;;
12972;SDS011;6551;51.056;9.466;2023-02-18T00:48:40;7.50;;;6.80;;
12972;SDS011;6551;51.056;9.466;2023-02-18T00:51:06;7.30;;;6.30;;
12972;SDS011;6551;51.056;9.466;2023-02-18T00:53:32;8.30;;;6.50;;
12972;SDS011;6551;51.056;9.466;2023-02-18T00:55:59;8.40;;;7.17;;
12972;SDS011;6551;51.056;9.466;2023-02-18T00:58:25;12.90;;;7.67;;
12972;SDS011;6551;51.056;9.466;2023-02-18T01:00:52;10.07;;;7.33;;
12972;SDS011;6551;51.056;9.466;2023-02-18T01:03:19;11.70;;;8.30;;
12972;SDS011;6551;51.056;9.466;2023-02-18T01:05:48;12.57;;;9.03;;
12972;SDS011;6551;51.056;9.466;2023-02-18T01:08:17;8.63;;;7.10;;
12972;SDS011;6551;51.056;9.466;2023-02-18T01:10:48;9.73;;;8.63;;
12972;SDS011;6551;51.056;9.466;2023-02-18T01:13:19;11.73;;;8.73;;
12972;SDS011;6551;51.056;9.466;2023-02-18T01:15:46;14.27;;;9.67;;
12972;SDS011;6551;51.056;9.466;2023-02-18T01:18:12;9.17;;;7.77;;
12972;SDS011;6551;51.056;9.466;2023-02-18T01:20:39;12.43;;;8.80;;
12972;SDS011;6551;51.056;9.466;2023-02-18T01:23:08;10.53;;;7.67;;
12972;SDS011;6551;51.056;9.466;2023-02-18T01:25:34;11.77;;;9.17;;
12972;SDS011;6551;51.056;9.466;2023-02-18T01:28:00;10.50;;;8.47;;
12972;SDS011;6551;51.056;9.466;2023-02-18T01:30:26;12.30;;;9.03;;
12972;SDS011;6551;51.056;9.466;2023-02-18T01:32:55;10.30;;;8.63;;
12972;SDS011;6551;51.056;9.466;2023-02-18T01:35:23;13.97;;;8.47;;
12972;SDS011;6551;51.056;9.466;2023-02-18T01:37:49;10.23;;;7.87;;
12972;SDS011;6551;51.056;9.466;2023-02-18T01:40:21;10.87;;;8.87;;
12972;SDS011;6551;51.056;9.466;2023-02-18T01:42:52;10.23;;;8.97;;
12972;SDS011;6551;51.056;9.466;2023-02-18T01:50:53;11.10;;;8.43;;
12972;SDS011;6551;51.056;9.466;2023-02-18T01:53:32;12.43;;;9.47;;
12972;SDS011;6551;51.056;9.466;2023-02-18T01:59:59;11.47;;;9.77;;
12972;SDS011;6551;51.056;9.466;2023-02-18T02:02:34;12.40;;;10.40;;
12972;SDS011;6551;51.056;9.466;2023-02-18T02:05:01;11.60;;;9.87;;
12972;SDS011;6551;51.056;9.466;2023-02-18T02:07:28;14.17;;;9.63;;
12972;SDS011;6551;51.056;9.466;2023-02-18T02:09:55;11.27;;;9.50;;
12972;SDS011;6551;51.056;9.466;2023-02-18T02:15:50;12.33;;;9.87;;
12972;SDS011;6551;51.056;9.466;2023-02-18T02:18:31;15.13;;;10.53;;
12972;SDS011;6551;51.056;9.466;2023-02-18T02:35:44;11.33;;;8.83;;
12972;SDS011;6551;51.056;9.466;2023-02-18T02:45:31;13.00;;;9.67;;
12972;SDS011;6551;51.056;9.466;2023-02-18T02:51:29;12.27;;;10.00;;
12972;SDS011;6551;51.056;9.466;2023-02-18T02:54:09;14.07;;;10.87;;
12972;SDS011;6551;51.056;9.466;2023-02-18T02:56:47;13.07;;;10.07;;
12972;SDS011;6551;51.056;9.466;2023-02-18T02:59:18;13.40;;;11.10;;
12972;SDS011;6551;51.056;9.466;2023-02-18T03:11:06;13.67;;;9.87;;
12972;SDS011;6551;51.056;9.466;2023-02-18T03:19:34;12.77;;;9.33;;
12972;SDS011;6551;51.056;9.466;2023-02-18T03:22:12;10.60;;;8.83;;
12972;SDS011;6551;51.056;9.466;2023-02-18T03:24:50;13.80;;;10.07;;
12972;SDS011;6551;51.056;9.466;2023-02-18T03:27:40;12.63;;;9.20;;
12972;SDS011;6551;51.056;9.466;2023-02-18T03:30:22;12.33;;;8.23;;
12972;SDS011;6551;51.056;9.466;2023-02-18T03:33:06;14.77;;;9.17;;
12972;SDS011;6551;51.056;9.466;2023-02-18T03:35:38;12.60;;;8.63;;
12972;SDS011;6551;51.056;9.466;2023-02-18T03:40:58;10.67;;;8.80;;
12972;SDS011;6551;51.056;9.466;2023-02-18T03:43:24;10.20;;;8.53;;
12972;SDS011;6551;51.056;9.466;2023-02-18T03:45:50;11.97;;;9.10;;
12972;SDS011;6551;51.056;9.466;2023-02-18T03:48:17;10.27;;;8.00;;
12972;SDS011;6551;51.056;9.466;2023-02-18T03:50:44;11.40;;;8.27;;
12972;SDS011;6551;51.056;9.466;2023-02-18T03:53:11;10.50;;;8.63;;
12972;SDS011;6551;51.056;9.466;2023-02-18T03:55:37;11.40;;;7.73;;
12972;SDS011;6551;51.056;9.466;2023-02-18T03:58:02;11.90;;;8.00;;
12972;SDS011;6551;51.056;9.466;2023-02-18T04:00:29;11.83;;;8.37;;
12972;SDS011;6551;51.056;9.466;2023-02-18T04:02:55;9.97;;;7.47;;
12972;SDS011;6551;51.056;9.466;2023-02-18T04:05:22;9.83;;;7.73;;
12972;SDS011;6551;51.056;9.466;2023-02-18T04:07:48;11.57;;;7.33;;
12972;SDS011;6551;51.056;9.466;2023-02-18T04:10:14;8.73;;;6.60;;
12972;SDS011;6551;51.056;9.466;2023-02-18T04:12:42;9.73;;;7.43;;
12972;SDS011;6551;51.056;9.466;2023-02-18T04:15:08;8.30;;;6.40;;
12972;SDS011;6551;51.056;9.466;2023-02-18T04:17:34;10.30;;;7.17;;
12972;SDS011;6551;51.056;9.466;2023-02-18T04:19:59;10.27;;;6.10;;
12972;SDS011;6551;51.056;9.466;2023-02-18T04:22:25;9.07;;;6.23;;
12972;SDS011;6551;51.056;9.466;2023-02-18T04:24:52;10.30;;;6.73;;
12972;SDS011;6551;51.056;9.466;2023-02-18T04:27:19;7.30;;;6.17;;
12972;SDS011;6551;51.056;9.466;2023-02-18T04:29:48;7.43;;;6.23;;
12972;SDS011;6551;51.056;9.466;2023-02-18T04:32:16;7.77;;;6.03;;
12972;SDS011;6551;51.056;9.466;2023-02-18T04:34:43;8.10;;;6.23;;
12972;SDS011;6551;51.056;9.466;2023-02-18T04:37:09;7.23;;;5.80;;
12972;SDS011;6551;51.056;9.466;2023-02-18T04:39:34;16.37;;;6.47;;
12972;SDS011;6551;51.056;9.466;2023-02-18T04:42:01;6.10;;;4.57;;
12972;SDS011;6551;51.056;9.466;2023-02-18T04:44:32;6.87;;;5.80;;
12972;SDS011;6551;51.056;9.466;2023-02-18T04:47:03;6.63;;;5.13;;
12972;SDS011;6551;51.056;9.466;2023-02-18T04:49:31;6.50;;;5.10;;
12972;SDS011;6551;51.056;9.466;2023-02-18T04:51:57;5.03;;;4.27;;
12972;SDS011;6551;51.056;9.466;2023-02-18T04:54:24;5.63;;;3.50;;
12972;SDS011;6551;51.056;9.466;2023-02-18T04:56:49;4.83;;;3.80;;
12972;SDS011;6551;51.056;9.466;2023-02-18T04:59:17;4.00;;;3.60;;
12972;SDS011;6551;51.056;9.466;2023-02-18T05:01:46;6.37;;;4.10;;
12972;SDS011;6551;51.056;9.466;2023-02-18T05:04:12;4.70;;;3.30;;
12972;SDS011;6551;51.056;9.466;2023-02-18T05:06:37;3.53;;;2.83;;
12972;SDS011;6551;51.056;9.466;2023-02-18T05:09:07;4.20;;;3.40;;
12972;SDS011;6551;51.056;9.466;2023-02-18T05:11:33;3.37;;;2.70;;
12972;SDS011;6551;51.056;9.466;2023-02-18T05:14:00;6.67;;;3.87;;
12972;SDS011;6551;51.056;9.466;2023-02-18T05:16:27;5.57;;;3.00;;
12972;SDS011;6551;51.056;9.466;2023-02-18T05:18:53;4.23;;;2.30;;
12972;SDS011;6551;51.056;9.466;2023-02-18T05:21:19;3.93;;;3.23;;
12972;SDS011;6551;51.056;9.466;2023-02-18T05:23:47;4.90;;;2.97;;
12972;SDS011;6551;51.056;9.466;2023-02-18T05:26:13;3.13;;;2.83;;
12972;SDS011;6551;51.056;9.466;2023-02-18T05:28:40;3.00;;;2.50;;
12972;SDS011;6551;51.056;9.466;2023-02-18T05:31:06;5.43;;;2.87;;
12972;SDS011;6551;51.056;9.466;2023-02-18T05:33:33;3.30;;;2.07;;
12972;SDS011;6551;51.056;9.466;2023-02-18T05:35:58;3.73;;;1.60;;
12972;SDS011;6551;51.056;9.466;2023-02-18T05:38:24;3.20;;;2.30;;
12972;SDS011;6551;51.056;9.466;2023-02-18T05:40:51;2.90;;;2.07;;
12972;SDS011;6551;51.056;9.466;2023-02-18T05:43:18;3.73;;;2.43;;
12972;SDS011;6551;51.056;9.466;2023-02-18T05:45:44;2.43;;;2.00;;
12972;SDS011;6551;51.056;9.466;2023-02-18T05:48:09;5.67;;;2.10;;
12972;SDS011;6551;51.056;9.466;2023-02-18T05:50:36;2.67;;;2.47;;
12972;SDS011;6551;51.056;9.466;2023-02-18T05:53:02;3.00;;;1.93;;
12972;SDS011;6551;51.056;9.466;2023-02-18T05:55:28;2.83;;;2.30;;
12972;SDS011;6551;51.056;9.466;2023-02-18T05:57:54;2.60;;;2.10;;
12972;SDS011;6551;51.056;9.466;2023-02-18T06:00:19;3.30;;;3.00;;
12972;SDS011;6551;51.056;9.466;2023-02-18T06:02:48;3.10;;;2.80;;
12972;SDS011;6551;51.056;9.466;2023-02-18T06:05:17;3.80;;;2.40;;
12972;SDS011;6551;51.056;9.466;2023-02-18T06:07:42;2.67;;;2.17;;
12972;SDS011;6551;51.056;9.466;2023-02-18T06:10:09;5.20;;;4.57;;
12972;SDS011;6551;51.056;9.466;2023-02-18T06:12:34;2.97;;;2.77;;
12972;SDS011;6551;51.056;9.466;2023-02-18T06:15:00;3.77;;;3.13;;
12972;SDS011;6551;51.056;9.466;2023-02-18T06:17:26;5.43;;;3.33;;
12972;SDS011;6551;51.056;9.466;2023-02-18T06:19:52;7.53;;;4.20;;
12972;SDS011;6551;51.056;9.466;2023-02-18T06:22:18;3.07;;;2.77;;
12972;SDS011;6551;51.056;9.466;2023-02-18T06:24:45;3.73;;;2.63;;
12972;SDS011;6551;51.056;9.466;2023-02-18T06:27:11;2.87;;;2.63;;
12972;SDS011;6551;51.056;9.466;2023-02-18T06:29:36;5.20;;;2.53;;
12972;SDS011;6551;51.056;9.466;2023-02-18T06:32:02;3.07;;;2.77;;
12972;SDS011;6551;51.056;9.466;2023-02-18T06:34:28;4.53;;;2.30;;
12972;SDS011;6551;51.056;9.466;2023-02-18T06:36:55;3.20;;;2.60;;
12972;SDS011;6551;51.056;9.466;2023-02-18T06:39:22;2.70;;;1.77;;
12972;SDS011;6551;51.056;9.466;2023-02-18T06:41:48;4.87;;;1.83;;
12972;SDS011;6551;51.056;9.466;2023-02-18T06:44:15;3.10;;;1.50;;
12972;SDS011;6551;51.056;9.466;2023-02-18T06:46:42;2.17;;;1.73;;
12972;SDS011;6551;51.056;9.466;2023-02-18T06:49:08;4.03;;;1.47;;
12972;SDS011;6551;51.056;9.466;2023-02-18T06:51:34;2.30;;;1.70;;
12972;SDS011;6551;51.056;9.466;2023-02-18T06:54:00;3.30;;;2.13;;
12972;SDS011;6551;51.056;9.466;2023-02-18T06:56:27;2.83;;;1.83;;
12972;SDS011;6551;51.056;9.466;2023-02-18T06:58:53;4.50;;;1.50;;
12972;SDS011;6551;51.056;9.466;2023-02-18T07:01:19;2.13;;;1.03;;
12972;SDS011;6551;51.056;9.466;2023-02-18T07:03:45;2.33;;;1.17;;
12972;SDS011;6551;51.056;9.466;2023-02-18T07:06:12;1.23;;;1.13;;
12972;SDS011;6551;51.056;9.466;2023-02-18T07:08:37;1.30;;;1.13;;
12972;SDS011;6551;51.056;9.466;2023-02-18T07:11:04;1.60;;;1.10;;
12972;SDS011;6551;51.056;9.466;2023-02-18T07:13:31;1.23;;;1.13;;
12972;SDS011;6551;51.056;9.466;2023-02-18T07:15:56;0.90;;;0.83;;
12972;SDS011;6551;51.056;9.466;2023-02-18T07:18:23;0.87;;;0.70;;
12972;SDS011;6551;51.056;9.466;2023-02-18T07:20:49;1.00;;;0.80;;
12972;SDS011;6551;51.056;9.466;2023-02-18T07:23:16;1.87;;;0.83;;
12972;SDS011;6551;51.056;9.466;2023-02-18T07:25:42;2.00;;;1.07;;
12972;SDS011;6551;51.056;9.466;2023-02-18T07:28:07;0.90;;;0.87;;
12972;SDS011;6551;51.056;9.466;2023-02-18T07:30:34;3.27;;;0.93;;
12972;SDS011;6551;51.056;9.466;2023-02-18T07:33:02;1.17;;;0.77;;
12972;SDS011;6551;51.056;9.466;2023-02-18T07:35:28;0.70;;;0.60;;
12972;SDS011;6551;51.056;9.466;2023-02-18T07:37:55;0.70;;;0.60;;
12972;SDS011;6551;51.056;9.466;2023-02-18T07:40:23;2.53;;;0.63;;
12972;SDS011;6551;51.056;9.466;2023-02-18T07:42:48;1.53;;;0.70;;
12972;SDS011;6551;51.056;9.466;2023-02-18T07:45:14;2.37;;;0.57;;
12972;SDS011;6551;51.056;9.466;2023-02-18T07:47:41;0.90;;;0.50;;
12972;SDS011;6551;51.056;9.466;2023-02-18T07:50:07;1.00;;;0.63;;
12972;SDS011;6551;51.056;9.466;2023-02-18T07:52:34;0.80;;;0.70;;
12972;SDS011;6551;51.056;9.466;2023-02-18T07:55:00;1.30;;;1.10;;
12972;SDS011;6551;51.056;9.466;2023-02-18T07:57:26;1.60;;;1.00;;
12972;SDS011;6551;51.056;9.466;2023-02-18T07:59:53;1.00;;;0.90;;
12972;SDS011;6551;51.056;9.466;2023-02-18T08:02:21;1.47;;;0.90;;
12972;SDS011;6551;51.056;9.466;2023-02-18T08:04:48;2.20;;;0.77;;
12972;SDS011;6551;51.056;9.466;2023-02-18T08:07:14;0.80;;;0.60;;
12972;SDS011;6551;51.056;9.466;2023-02-18T08:09:43;0.70;;;0.70;;
12972;SDS011;6551;51.056;9.466;2023-02-18T08:12:09;2.03;;;0.70;;
12972;SDS011;6551;51.056;9.466;2023-02-18T08:14:35;0.70;;;0.67;;
12972;SDS011;6551;51.056;9.466;2023-02-18T08:17:02;0.77;;;0.67;;
12972;SDS011;6551;51.056;9.466;2023-02-18T08:19:29;2.47;;;0.70;;
12972;SDS011;6551;51.056;9.466;2023-02-18T08:21:55;1.00;;;0.50;;
12972;SDS011;6551;51.056;9.466;2023-02-18T08:24:21;1.47;;;0.70;;
12972;SDS011;6551;51.056;9.466;2023-02-18T08:26:48;0.80;;;0.60;;
12972;SDS011;6551;51.056;9.466;2023-02-18T08:29:15;1.00;;;0.70;;
12972;SDS011;6551;51.056;9.466;2023-02-18T08:31:41;0.50;;;0.50;;
12972;SDS011;6551;51.056;9.466;2023-02-18T08:34:07;0.60;;;0.60;;
12972;SDS011;6551;51.056;9.466;2023-02-18T08:36:34;2.77;;;0.70;;
12972;SDS011;6551;51.056;9.466;2023-02-18T08:39:00;0.87;;;0.70;;
12972;SDS011;6551;51.056;9.466;2023-02-18T08:41:27;0.83;;;0.77;;
12972;SDS011;6551;51.056;9.466;2023-02-18T08:43:52;1.00;;;0.90;;
12972;SDS011;6551;51.056;9.466;2023-02-18T08:46:18;0.70;;;0.70;;
12972;SDS011;6551;51.056;9.466;2023-02-18T08:48:45;1.03;;;0.63;;
12972;SDS011;6551;51.056;9.466;2023-02-18T08:51:16;0.90;;;0.70;;
12972;SDS011;6551;51.056;9.466;2023-02-18T08:53:45;1.27;;;0.90;;
12972;SDS011;6551;51.056;9.466;2023-02-18T08:56:13;3.00;;;0.93;;
12972;SDS011;6551;51.056;9.466;2023-02-18T08:58:40;0.73;;;0.70;;
12972;SDS011;6551;51.056;9.466;2023-02-18T09:01:07;1.00;;;0.90;;
12972;SDS011;6551;51.056;9.466;2023-02-18T09:03:37;1.20;;;0.93;;
12972;SDS011;6551;51.056;9.466;2023-02-18T09:06:03;2.30;;;1.00;;
12972;SDS011;6551;51.056;9.466;2023-02-18T09:08:29;1.33;;;0.77;;
12972;SDS011;6551;51.056;9.466;2023-02-18T09:10:56;1.80;;;0.87;;
12972;SDS011;6551;51.056;9.466;2023-02-18T09:13:25;0.87;;;0.87;;
12972;SDS011;6551;51.056;9.466;2023-02-18T09:15:55;2.03;;;1.00;;
12972;SDS011;6551;51.056;9.466;2023-02-18T09:18:22;1.20;;;0.80;;
12972;SDS011;6551;51.056;9.466;2023-02-18T09:20:47;1.33;;;1.20;;
12972;SDS011;6551;51.056;9.466;2023-02-18T09:23:13;0.60;;;0.60;;
12972;SDS011;6551;51.056;9.466;2023-02-18T09:25:41;1.93;;;0.83;;
12972;SDS011;6551;51.056;9.466;2023-02-18T09:28:06;1.30;;;0.70;;
12972;SDS011;6551;51.056;9.466;2023-02-18T09:30:33;1.33;;;0.70;;
12972;SDS011;6551;51.056;9.466;2023-02-18T09:32:59;1.07;;;0.70;;
12972;SDS011;6551;51.056;9.466;2023-02-18T09:35:26;2.70;;;0.70;;
12972;SDS011;6551;51.056;9.466;2023-02-18T09:37:52;0.80;;;0.70;;
12972;SDS011;6551;51.056;9.466;2023-02-18T09:40:22;0.80;;;0.60;;
12972;SDS011;6551;51.056;9.466;2023-02-18T09:42:54;3.00;;;0.70;;
12972;SDS011;6551;51.056;9.466;2023-02-18T09:45:23;1.23;;;0.50;;
12972;SDS011;6551;51.056;9.466;2023-02-18T09:47:50;2.30;;;0.60;;
12972;SDS011;6551;51.056;9.466;2023-02-18T09:50:21;0.60;;;0.30;;
12972;SDS011;6551;51.056;9.466;2023-02-18T09:52:59;2.40;;;0.50;;
12972;SDS011;6551;51.056;9.466;2023-02-18T09:55:31;1.57;;;0.60;;
12972;SDS011;6551;51.056;9.466;2023-02-18T09:58:11;0.83;;;0.70;;
12972;SDS011;6551;51.056;9.466;2023-02-18T10:00:51;0.73;;;0.40;;
12972;SDS011;6551;51.056;9.466;2023-02-18T10:03:36;1.27;;;0.53;;
12972;SDS011;6551;51.056;9.466;2023-02-18T10:06:08;1.63;;;0.60;;
12972;SDS011;6551;51.056;9.466;2023-02-18T10:08:50;0.43;;;0.33;;
12972;SDS011;6551;51.056;9.466;2023-02-18T10:15:00;0.50;;;0.23;;
12972;SDS011;6551;51.056;9.466;2023-02-18T10:17:29;0.83;;;0.30;;
12972;SDS011;6551;51.056;9.466;2023-02-18T10:19:58;0.80;;;0.50;;
12972;SDS011;6551;51.056;9.466;2023-02-18T10:22:26;0.70;;;0.60;;
12972;SDS011;6551;51.056;9.466;2023-02-18T10:24:54;0.97;;;0.33;;
12972;SDS011;6551;51.056;9.466;2023-02-18T10:27:26;0.80;;;0.20;;
12972;SDS011;6551;51.056;9.466;2023-02-18T10:30:01;0.77;;;0.50;;
12972;SDS011;6551;51.056;9.466;2023-02-18T10:32:39;0.67;;;0.20;;
12972;SDS011;6551;51.056;9.466;2023-02-18T10:41:40;0.40;;;0.30;;
12972;SDS011;6551;51.056;9.466;2023-02-18T10:44:36;0.93;;;0.20;;
12972;SDS011;6551;51.056;9.466;2023-02-18T10:50:18;0.40;;;0.30;;
12972;SDS011;6551;51.056;9.466;2023-02-18T10:53:07;0.40;;;0.30;;
12972;SDS011;6551;51.056;9.466;2023-02-18T10:55:56;1.80;;;0.40;;
12972;SDS011;6551;51.056;9.466;2023-02-18T11:01:05;1.07;;;0.47;;
12972;SDS011;6551;51.056;9.466;2023-02-18T11:03:46;1.00;;;0.50;;
12972;SDS011;6551;51.056;9.466;2023-02-18T11:06:33;0.70;;;0.40;;
12972;SDS011;6551;51.056;9.466;2023-02-18T11:09:03;0.50;;;0.40;;
12972;SDS011;6551;51.056;9.466;2023-02-18T11:11:32;1.43;;;0.50;;
12972;SDS011;6551;51.056;9.466;2023-02-18T11:14:05;3.17;;;0.73;;
12972;SDS011;6551;51.056;9.466;2023-02-18T11:17:06;1.37;;;0.50;;
12972;SDS011;6551;51.056;9.466;2023-02-18T11:19:40;1.43;;;0.53;;
12972;SDS011;6551;51.056;9.466;2023-02-18T11:22:20;1.30;;;0.70;;
12972;SDS011;6551;51.056;9.466;2023-02-18T11:24:55;1.63;;;0.60;;
12972;SDS011;6551;51.056;9.466;2023-02-18T11:27:45;3.23;;;0.70;;
12972;SDS011;6551;51.056;9.466;2023-02-18T11:30:36;2.10;;;0.83;;
12972;SDS011;6551;51.056;9.466;2023-02-18T11:33:06;3.00;;;0.60;;
12972;SDS011;6551;51.056;9.466;2023-02-18T11:36:02;3.93;;;0.87;;
12972;SDS011;6551;51.056;9.466;2023-02-18T11:41:39;1.60;;;0.73;;
12972;SDS011;6551;51.056;9.466;2023-02-18T11:49:38;4.10;;;0.73;;
12972;SDS011;6551;51.056;9.466;2023-02-18T11:52:18;4.27;;;1.20;;
12972;SDS011;6551;51.056;9.466;2023-02-18T11:55:02;2.07;;;0.80;;
12972;SDS011;6551;51.056;9.466;2023-02-18T11:57:55;2.13;;;1.00;;
12972;SDS011;6551;51.056;9.466;2023-02-18T12:03:26;1.93;;;0.83;;
12972;SDS011;6551;51.056;9.466;2023-02-18T12:06:03;1.20;;;1.10;;
12972;SDS011;6551;51.056;9.466;2023-02-18T12:08:53;2.13;;;0.90;;
12972;SDS011;6551;51.056;9.466;2023-02-18T12:11:29;3.70;;;1.00;;
12972;SDS011;6551;51.056;9.466;2023-02-18T12:14:02;3.20;;;0.80;;
12972;SDS011;6551;51.056;9.466;2023-02-18T12:25:46;3.10;;;0.80;;
12972;SDS011;6551;51.056;9.466;2023-02-18T12:32:38;1.90;;;0.70;;
12972;SDS011;6551;51.056;9.466;2023-02-18T12:49:02;1.90;;;0.77;;
12972;SDS011;6551;51.056;9.466;2023-02-18T12:52:00;3.37;;;0.70;;
12972;SDS011;6551;51.056;9.466;2023-02-18T13:13:12;0.80;;;0.57;;
12972;SDS011;6551;51.056;9.466;2023-02-18T13:15:49;0.70;;;0.40;;
12972;SDS011;6551;51.056;9.466;2023-02-18T13:18:33;1.43;;;0.40;;
12972;SDS011;6551;51.056;9.466;2023-02-18T13:21:11;0.70;;;0.40;;
12972;SDS011;6551;51.056;9.466;2023-02-18T13:26:27;2.27;;;0.50;;
12972;SDS011;6551;51.056;9.466;2023-02-18T13:32:08;3.57;;;0.60;;
12972;SDS011;6551;51.056;9.466;2023-02-18T13:35:04;0.53;;;0.37;;
12972;SDS011;6551;51.056;9.466;2023-02-18T13:40:54;2.13;;;0.87;;
12972;SDS011;6551;51.056;9.466;2023-02-18T13:43:34;0.70;;;0.47;;
12972;SDS011;6551;51.056;9.466;2023-02-18T13:46:13;2.80;;;0.40;;
12972;SDS011;6551;51.056;9.466;2023-02-18T13:48:54;2.60;;;1.43;;
12972;SDS011;6551;51.056;9.466;2023-02-18T13:57:01;1.50;;;0.93;;
12972;SDS011;6551;51.056;9.466;2023-02-18T14:13:17;1.03;;;0.83;;
12972;SDS011;6551;51.056;9.466;2023-02-18T14:15:55;3.30;;;2.07;;
12972;SDS011;6551;51.056;9.466;2023-02-18T14:21:16;1.20;;;1.10;;
12972;SDS011;6551;51.056;9.466;2023-02-18T14:23:56;2.80;;;1.90;;
12972;SDS011;6551;51.056;9.466;2023-02-18T14:26:31;3.97;;;2.70;;
12972;SDS011;6551;51.056;9.466;2023-02-18T14:29:07;5.93;;;5.37;;
12972;SDS011;6551;51.056;9.466;2023-02-18T14:32:01;1.00;;;0.53;;
12972;SDS011;6551;51.056;9.466;2023-02-18T14:34:46;2.80;;;0.70;;
12972;SDS011;6551;51.056;9.466;2023-02-18T14:46:28;1.43;;;0.60;;
12972;SDS011;6551;51.056;9.466;2023-02-18T14:51:39;0.70;;;0.70;;
12972;SDS011;6551;51.056;9.466;2023-02-18T14:54:10;18.83;;;10.63;;
12972;SDS011;6551;51.056;9.466;2023-02-18T14:57:03;11.30;;;6.23;;
12972;SDS011;6551;51.056;9.466;2023-02-18T14:59:35;7.13;;;3.83;;
12972;SDS011;6551;51.056;9.466;2023-02-18T15:02:13;4.00;;;2.40;;
12972;SDS011;6551;51.056;9.466;2023-02-18T15:04:51;3.27;;;2.00;;
12972;SDS011;6551;51.056;9.466;2023-02-18T15:07:19;2.40;;;1.53;;
12972;SDS011;6551;51.056;9.466;2023-02-18T15:09:53;10.57;;;4.67;;
12972;SDS011;6551;51.056;9.466;2023-02-18T15:12:22;12.40;;;5.63;;
12972;SDS011;6551;51.056;9.466;2023-02-18T15:14:51;3.70;;;1.33;;
12972;SDS011;6551;51.056;9.466;2023-02-18T15:17:20;1.60;;;1.00;;
12972;SDS011;6551;51.056;9.466;2023-02-18T15:19:52;0.97;;;0.83;;
12972;SDS011;6551;51.056;9.466;2023-02-18T15:22:30;1.70;;;1.37;;
12972;SDS011;6551;51.056;9.466;2023-02-18T15:25:00;2.40;;;1.83;;
12972;SDS011;6551;51.056;9.466;2023-02-18T15:27:30;1.30;;;1.20;;
12972;SDS011;6551;51.056;9.466;2023-02-18T15:32:55;1.80;;;1.20;;
12972;SDS011;6551;51.056;9.466;2023-02-18T15:35:28;1.30;;;0.97;;
12972;SDS011;6551;51.056;9.466;2023-02-18T15:37:57;1.30;;;0.90;;
12972;SDS011;6551;51.056;9.466;2023-02-18T15:40:26;1.03;;;0.70;;
12972;SDS011;6551;51.056;9.466;2023-02-18T15:43:01;1.10;;;1.00;;
12972;SDS011;6551;51.056;9.466;2023-02-18T15:45:32;1.30;;;0.80;;
12972;SDS011;6551;51.056;9.466;2023-02-18T15:48:02;1.20;;;0.90;;
12972;SDS011;6551;51.056;9.466;2023-02-18T15:50:36;1.30;;;1.20;;
12972;SDS011;6551;51.056;9.466;2023-02-18T15:53:14;2.23;;;1.10;;
12972;SDS011;6551;51.056;9.466;2023-02-18T15:55:45;0.83;;;0.70;;
12972;SDS011;6551;51.056;9.466;2023-02-18T15:58:18;1.83;;;1.00;;
12972;SDS011;6551;51.056;9.466;2023-02-18T16:01:02;2.50;;;0.70;;
12972;SDS011;6551;51.056;9.466;2023-02-18T16:03:50;1.30;;;0.60;;
12972;SDS011;6551;51.056;9.466;2023-02-18T16:12:02;1.00;;;0.80;;
12972;SDS011;6551;51.056;9.466;2023-02-18T16:14:46;1.37;;;0.90;;
12972;SDS011;6551;51.056;9.466;2023-02-18T16:17:17;1.13;;;0.70;;
12972;SDS011;6551;51.056;9.466;2023-02-18T16:19:57;0.90;;;0.70;;
12972;SDS011;6551;51.056;9.466;2023-02-18T16:22:44;0.93;;;0.80;;
12972;SDS011;6551;51.056;9.466;2023-02-18T16:30:57;1.83;;;1.10;;
12972;SDS011;6551;51.056;9.466;2023-02-18T16:33:24;2.33;;;1.10;;
12972;SDS011;6551;51.056;9.466;2023-02-18T16:35:51;1.43;;;1.20;;
12972;SDS011;6551;51.056;9.466;2023-02-18T16:38:22;2.80;;;1.30;;
12972;SDS011;6551;51.056;9.466;2023-02-18T16:40:51;1.70;;;1.30;;
12972;SDS011;6551;51.056;9.466;2023-02-18T16:43:22;1.20;;;1.07;;
12972;SDS011;6551;51.056;9.466;2023-02-18T16:45:52;1.27;;;0.90;;
12972;SDS011;6551;51.056;9.466;2023-02-18T16:48:35;1.27;;;0.90;;
12972;SDS011;6551;51.056;9.466;2023-02-18T16:51:10;2.93;;;1.83;;
12972;SDS011;6551;51.056;9.466;2023-02-18T16:53:47;3.63;;;2.37;;
12972;SDS011;6551;51.056;9.466;2023-02-18T16:56:17;4.90;;;2.10;;
12972;SDS011;6551;51.056;9.466;2023-02-18T16:58:58;4.73;;;2.13;;
12972;SDS011;6551;51.056;9.466;2023-02-18T17:01:28;1.60;;;1.43;;
12972;SDS011;6551;51.056;9.466;2023-02-18T17:04:01;3.23;;;2.63;;
12972;SDS011;6551;51.056;9.466;2023-02-18T17:06:31;4.53;;;2.90;;
12972;SDS011;6551;51.056;9.466;2023-02-18T17:08:57;2.60;;;2.20;;
12972;SDS011;6551;51.056;9.466;2023-02-18T17:11:33;3.57;;;2.83;;
12972;SDS011;6551;51.056;9.466;2023-02-18T17:14:01;4.80;;;3.17;;
12972;SDS011;6551;51.056;9.466;2023-02-18T17:16:29;3.63;;;2.90;;
12972;SDS011;6551;51.056;9.466;2023-02-18T17:18:56;3.53;;;2.93;;
12972;SDS011;6551;51.056;9.466;2023-02-18T17:21:24;2.40;;;2.20;;
12972;SDS011;6551;51.056;9.466;2023-02-18T17:23:51;2.30;;;2.10;;
12972;SDS011;6551;51.056;9.466;2023-02-18T17:26:18;2.77;;;2.00;;
12972;SDS011;6551;51.056;9.466;2023-02-18T17:28:49;5.30;;;4.00;;
12972;SDS011;6551;51.056;9.466;2023-02-18T17:31:17;3.77;;;3.27;;
12972;SDS011;6551;51.056;9.466;2023-02-18T17:33:51;5.47;;;3.57;;
12972;SDS011;6551;51.056;9.466;2023-02-18T17:36:21;4.87;;;3.30;;
12972;SDS011;6551;51.056;9.466;2023-02-18T17:38:49;11.83;;;3.37;;
12972;SDS011;6551;51.056;9.466;2023-02-18T17:41:15;5.97;;;3.50;;
12972;SDS011;6551;51.056;9.466;2023-02-18T17:43:41;6.30;;;4.57;;
12972;SDS011;6551;51.056;9.466;2023-02-18T17:46:09;4.80;;;3.37;;
12972;SDS011;6551;51.056;9.466;2023-02-18T17:48:38;6.83;;;6.13;;
12972;SDS011;6551;51.056;9.466;2023-02-18T17:51:06;4.03;;;3.40;;
12972;SDS011;6551;51.056;9.466;2023-02-18T17:53:55;4.67;;;4.17;;
12972;SDS011;6551;51.056;9.466;2023-02-18T17:56:24;6.00;;;4.63;;
12972;SDS011;6551;51.056;9.466;2023-02-18T17:58:51;18.30;;;10.17;;
12972;SDS011;6551;51.056;9.466;2023-02-18T18:01:21;12.73;;;8.33;;
12972;SDS011;6551;51.056;9.466;2023-02-18T18:03:48;15.10;;;8.90;;
12972;SDS011;6551;51.056;9.466;2023-02-18T18:06:17;15.80;;;10.30;;
12972;SDS011;6551;51.056;9.466;2023-02-18T18:08:45;13.97;;;9.00;;
12972;SDS011;6551;51.056;9.466;2023-02-18T18:11:19;9.33;;;6.60;;
12972;SDS011;6551;51.056;9.466;2023-02-18T18:13:49;6.43;;;3.93;;
12972;SDS011;6551;51.056;9.466;2023-02-18T18:16:20;5.50;;;4.73;;
12972;SDS011;6551;51.056;9.466;2023-02-18T18:18:46;5.00;;;4.50;;
12972;SDS011;6551;51.056;9.466;2023-02-18T18:21:20;6.93;;;5.83;;
12972;SDS011;6551;51.056;9.466;2023-02-18T18:24:00;8.27;;;6.20;;
12972;SDS011;6551;51.056;9.466;2023-02-18T18:26:28;7.80;;;5.60;;